createdAt,value
2023-01-29T00:00:17.984Z,41.83
2023-01-29T00:02:45.945Z,43.83
2023-01-29T00:05:26.978Z,40.83
2023-01-29T00:07:57.537Z,44.63
2023-01-29T00:10:27.101Z,44.20
2023-01-29T00:12:55.420Z,45.53
2023-01-29T00:15:23.480Z,45.80
2023-01-29T00:17:51.206Z,43.63
2023-01-29T00:20:19.545Z,41.20
2023-01-29T00:22:47.520Z,43.50
2023-01-29T00:25:15.136Z,41.97
2023-01-29T00:27:44.063Z,73.70
2023-01-29T00:30:13.807Z,177.23
2023-01-29T00:32:42.443Z,206.17
2023-01-29T00:35:12.166Z,126.70
2023-01-29T00:37:40.073Z,72.97
2023-01-29T00:40:10.628Z,47.97
2023-01-29T00:42:57.285Z,69.90
2023-01-29T00:45:25.067Z,62.63
2023-01-29T00:47:52.923Z,51.80
2023-01-29T00:50:21.082Z,52.63
2023-01-29T00:52:49.909Z,45.90
2023-01-29T00:55:17.950Z,44.47
2023-01-29T00:57:47.073Z,45.67
2023-01-29T01:00:19.681Z,46.93
2023-01-29T01:03:05.929Z,40.67
2023-01-29T01:05:34.475Z,42.90
2023-01-29T01:08:02.401Z,42.20
2023-01-29T01:10:34.055Z,41.37
2023-01-29T01:13:07.903Z,40.70
2023-01-29T01:15:40.980Z,39.30
2023-01-29T01:18:08.785Z,41.97
2023-01-29T01:20:37.876Z,40.90
2023-01-29T01:23:05.850Z,42.80
2023-01-29T01:25:34.080Z,39.63
2023-01-29T01:28:01.983Z,38.17
2023-01-29T01:30:30.140Z,39.07
2023-01-29T01:32:58.233Z,38.43
2023-01-29T01:35:26.058Z,40.43
2023-01-29T01:37:54.041Z,36.90
2023-01-29T01:40:25.979Z,46.17
2023-01-29T01:42:59.794Z,38.60
2023-01-29T01:45:37.066Z,39.90
2023-01-29T01:48:19.636Z,36.83
2023-01-29T01:51:06.664Z,38.27
2023-01-29T01:54:17.269Z,36.67
2023-01-29T01:57:09.569Z,36.67
2023-01-29T01:59:43.701Z,38.73
2023-01-29T02:02:30.507Z,37.07
2023-01-29T02:05:18.253Z,39.10
2023-01-29T02:08:10.194Z,40.50
2023-01-29T02:10:49.132Z,37.43
2023-01-29T02:13:18.807Z,37.67
2023-01-29T02:15:48.781Z,36.33
2023-01-29T02:18:21.732Z,36.77
2023-01-29T02:21:40.199Z,34.70
2023-01-29T02:24:50.363Z,33.53
2023-01-29T02:28:05.182Z,34.00
2023-01-29T02:30:47.324Z,35.10
2023-01-29T02:33:43.285Z,35.60
2023-01-29T02:36:29.123Z,35.40
2023-01-29T02:39:38.607Z,33.53
2023-01-29T02:43:14.387Z,35.90
2023-01-29T02:46:28.158Z,32.57
2023-01-29T02:49:19.242Z,37.47
2023-01-29T02:52:23.490Z,33.57
2023-01-29T02:55:35.649Z,32.47
2023-01-29T02:58:59.402Z,34.90
2023-01-29T03:01:54.716Z,32.20
2023-01-29T03:04:48.455Z,32.63
2023-01-29T03:07:42.567Z,33.10
2023-01-29T03:10:29.009Z,34.33
2023-01-29T03:13:42.032Z,34.17
2023-01-29T03:16:42.133Z,32.57
2023-01-29T03:19:36.727Z,33.40
2023-01-29T03:22:16.753Z,31.33
2023-01-29T03:25:19.439Z,34.67
2023-01-29T03:28:19.024Z,34.70
2023-01-29T03:31:26.053Z,32.27
2023-01-29T03:34:34.759Z,32.80
2023-01-29T03:37:46.592Z,31.47
2023-01-29T03:40:16.548Z,35.13
2023-01-29T03:43:20.929Z,34.30
2023-01-29T03:46:38.648Z,31.67
2023-01-29T03:49:59.554Z,36.73
2023-01-29T03:53:18.794Z,34.77
2023-01-29T03:56:44.529Z,35.07
2023-01-29T03:59:54.254Z,34.63
2023-01-29T04:03:30.540Z,34.37
2023-01-29T04:06:20.802Z,35.30
2023-01-29T04:09:30.671Z,32.83
2023-01-29T04:12:12.079Z,33.00
2023-01-29T04:14:43.573Z,33.10
2023-01-29T04:17:43.906Z,33.93
2023-01-29T04:20:20.691Z,33.50
2023-01-29T04:22:53.514Z,33.73
2023-01-29T04:25:36.241Z,34.30
2023-01-29T04:28:34.818Z,33.33
2023-01-29T04:31:12.816Z,32.57
2023-01-29T04:34:28.101Z,34.80
2023-01-29T04:37:23.011Z,30.73
2023-01-29T04:40:39.165Z,32.60
2023-01-29T04:43:28.131Z,29.63
2023-01-29T04:46:27.309Z,31.47
2023-01-29T04:50:13.738Z,31.23
2023-01-29T04:53:17.749Z,33.17
2023-01-29T04:56:09.365Z,32.17
2023-01-29T04:59:06.731Z,31.40
2023-01-29T05:01:38.191Z,33.33
2023-01-29T05:04:20.117Z,34.70
2023-01-29T05:06:49.980Z,28.90
2023-01-29T05:09:20.093Z,34.63
2023-01-29T05:11:50.426Z,31.50
2023-01-29T05:14:23.832Z,30.03
2023-01-29T05:16:58.950Z,29.43
2023-01-29T05:19:27.143Z,29.20
2023-01-29T05:21:55.809Z,28.40
2023-01-29T05:24:27.253Z,32.03
2023-01-29T05:27:14.262Z,31.70
2023-01-29T05:29:47.885Z,30.30
2023-01-29T05:32:17.140Z,30.13
2023-01-29T05:34:44.864Z,27.50
2023-01-29T05:37:12.678Z,28.07
2023-01-29T05:39:40.382Z,31.97
2023-01-29T05:42:08.065Z,30.47
2023-01-29T05:44:35.893Z,28.90
2023-01-29T05:47:03.753Z,31.30
2023-01-29T05:49:31.464Z,31.93
2023-01-29T05:51:59.275Z,28.57
2023-01-29T05:54:27.117Z,30.27
2023-01-29T05:56:54.860Z,27.40
2023-01-29T05:59:22.868Z,31.60
2023-01-29T06:01:50.770Z,29.67
2023-01-29T06:04:18.519Z,28.77
2023-01-29T06:06:46.258Z,29.03
2023-01-29T06:09:14.158Z,27.80
2023-01-29T06:11:41.851Z,29.87
2023-01-29T06:14:09.891Z,28.80
2023-01-29T06:16:37.671Z,31.40
2023-01-29T06:19:05.515Z,28.73
2023-01-29T06:21:33.257Z,30.97
2023-01-29T06:24:01.294Z,29.80
2023-01-29T06:26:28.949Z,31.23
2023-01-29T06:28:56.810Z,29.97
2023-01-29T06:31:37.875Z,29.17
2023-01-29T06:34:08.538Z,28.37
2023-01-29T06:36:37.024Z,32.27
2023-01-29T06:39:05.500Z,29.20
2023-01-29T06:41:33.560Z,29.40
2023-01-29T06:44:01.421Z,28.60
2023-01-29T06:46:29.431Z,28.07
2023-01-29T06:49:03.088Z,31.57
2023-01-29T06:51:30.944Z,29.43
2023-01-29T06:53:59.809Z,29.20
2023-01-29T06:56:27.839Z,29.00
2023-01-29T06:58:55.721Z,28.30
2023-01-29T07:01:35.246Z,31.00
2023-01-29T07:04:04.672Z,31.93
2023-01-29T07:06:34.936Z,27.93
2023-01-29T07:09:05.984Z,28.73
2023-01-29T07:11:37.938Z,29.10
2023-01-29T07:14:07.149Z,29.37
2023-01-29T07:16:35.309Z,31.40
2023-01-29T07:19:03.389Z,29.00
2023-01-29T07:21:31.533Z,29.50
2023-01-29T07:23:59.319Z,30.57
2023-01-29T07:26:27.488Z,29.80
2023-01-29T07:28:56.051Z,32.40
2023-01-29T07:31:24.086Z,29.20
2023-01-29T07:33:54.281Z,33.40
2023-01-29T07:36:22.361Z,32.03
2023-01-29T07:38:51.958Z,33.00
2023-01-29T07:41:20.196Z,30.43
2023-01-29T07:43:49.039Z,27.13
2023-01-29T07:46:17.041Z,29.43
2023-01-29T07:48:45.082Z,29.83
2023-01-29T07:51:12.813Z,32.77
2023-01-29T07:53:40.798Z,30.60
2023-01-29T07:56:08.674Z,30.20
2023-01-29T07:58:36.887Z,27.13
2023-01-29T08:01:08.738Z,30.10
2023-01-29T08:03:37.523Z,32.23
2023-01-29T08:06:06.441Z,34.47
2023-01-29T08:08:37.790Z,31.03
2023-01-29T08:11:06.207Z,31.23
2023-01-29T08:13:34.467Z,29.70
2023-01-29T08:16:04.805Z,29.80
2023-01-29T08:18:32.980Z,27.47
2023-01-29T08:21:02.523Z,29.33
2023-01-29T08:23:30.758Z,28.80
2023-01-29T08:25:58.928Z,27.30
2023-01-29T08:28:26.784Z,29.80
2023-01-29T08:30:55.254Z,30.90
2023-01-29T08:33:37.882Z,26.83
2023-01-29T08:36:09.539Z,26.90
2023-01-29T08:38:37.603Z,30.00
2023-01-29T08:41:07.119Z,28.23
2023-01-29T08:43:40.045Z,29.63
2023-01-29T08:46:09.059Z,28.60
2023-01-29T08:48:37.102Z,25.43
2023-01-29T08:51:06.029Z,27.80
2023-01-29T08:53:34.130Z,28.33
2023-01-29T08:56:02.354Z,28.70
2023-01-29T08:58:30.132Z,29.60
2023-01-29T09:01:06.121Z,30.37
2023-01-29T09:03:47.135Z,29.47
2023-01-29T09:06:15.768Z,30.90
2023-01-29T09:08:43.580Z,28.70
2023-01-29T09:11:12.179Z,29.27
2023-01-29T09:13:40.016Z,26.50
2023-01-29T09:16:09.563Z,29.97
2023-01-29T09:18:37.956Z,25.93
2023-01-29T09:21:06.389Z,28.37
2023-01-29T09:23:34.491Z,28.60
2023-01-29T09:26:02.329Z,29.37
2023-01-29T09:28:30.433Z,28.00
2023-01-29T09:31:03.247Z,28.20
2023-01-29T09:33:32.673Z,27.17
2023-01-29T09:36:03.514Z,27.60
2023-01-29T09:38:31.376Z,28.07
2023-01-29T09:42:30.324Z,29.10
2023-01-29T09:45:24.733Z,26.93
2023-01-29T09:47:59.244Z,27.80
2023-01-29T09:50:46.762Z,27.73
2023-01-29T09:53:47.632Z,29.00
2023-01-29T09:56:28.851Z,28.23
2023-01-29T09:59:01.706Z,26.37
2023-01-29T10:01:50.734Z,28.30
2023-01-29T10:05:06.766Z,27.93
2023-01-29T10:08:20.794Z,29.47
2023-01-29T10:12:16.267Z,28.30
2023-01-29T10:15:08.799Z,28.90
2023-01-29T10:18:43.214Z,27.23
2023-01-29T10:22:22.845Z,28.43
2023-01-29T10:25:22.824Z,31.03
2023-01-29T10:28:01.292Z,28.00
2023-01-29T10:30:45.739Z,29.83
2023-01-29T10:33:49.571Z,27.60
2023-01-29T10:36:54.766Z,27.70
2023-01-29T10:39:31.151Z,28.60
2023-01-29T10:42:46.503Z,26.67
2023-01-29T10:46:16.383Z,24.83
2023-01-29T10:49:31.932Z,26.23
2023-01-29T10:52:54.753Z,25.50
2023-01-29T10:55:52.049Z,27.00
2023-01-29T10:59:38.356Z,26.77
2023-01-29T11:02:22.728Z,26.40
2023-01-29T11:04:50.979Z,29.00
2023-01-29T11:07:24.605Z,26.47
2023-01-29T11:10:15.299Z,25.80
2023-01-29T11:12:45.735Z,25.50
2023-01-29T11:15:36.465Z,27.10
2023-01-29T11:18:15.925Z,26.70
2023-01-29T11:20:59.636Z,27.00
2023-01-29T11:23:33.973Z,28.30
2023-01-29T11:26:18.320Z,26.03
2023-01-29T11:28:51.346Z,26.57
2023-01-29T11:31:37.581Z,27.50
2023-01-29T11:34:29.567Z,26.37
2023-01-29T11:37:17.464Z,26.87
2023-01-29T11:39:48.482Z,26.87
2023-01-29T11:42:23.677Z,27.30
2023-01-29T11:44:51.743Z,26.93
2023-01-29T11:47:29.758Z,27.27
2023-01-29T11:50:04.653Z,26.57
2023-01-29T11:52:43.930Z,25.20
2023-01-29T11:55:33.078Z,28.03
2023-01-29T11:58:26.775Z,27.67
2023-01-29T12:00:58.313Z,27.50
2023-01-29T12:03:46.995Z,26.53
2023-01-29T12:06:36.629Z,26.80
2023-01-29T12:09:20.031Z,24.23
2023-01-29T12:11:48.720Z,26.30
2023-01-29T12:14:34.419Z,25.20
2023-01-29T12:17:31.157Z,26.70
2023-01-29T12:20:13.942Z,26.37
2023-01-29T12:23:03.677Z,26.10
2023-01-29T12:26:08.096Z,26.53
2023-01-29T12:30:22.159Z,25.67
2023-01-29T12:33:28.117Z,25.73
2023-01-29T12:36:55.871Z,26.87
2023-01-29T12:39:24.031Z,25.60
2023-01-29T12:42:15.806Z,26.23
2023-01-29T12:45:08.204Z,25.57
2023-01-29T12:48:02.056Z,27.00
2023-01-29T12:50:41.272Z,27.23
2023-01-29T12:53:51.092Z,26.30
2023-01-29T12:56:38.081Z,26.80
2023-01-29T12:59:36.837Z,26.43
2023-01-29T13:02:44.470Z,24.40
2023-01-29T13:05:48.376Z,23.93
2023-01-29T13:08:32.803Z,25.07
2023-01-29T13:11:12.023Z,25.03
2023-01-29T13:13:54.872Z,23.93
2023-01-29T13:16:49.966Z,25.80
2023-01-29T13:19:48.333Z,26.40
2023-01-29T13:22:41.838Z,21.57
2023-01-29T13:25:20.699Z,28.07
2023-01-29T13:27:50.680Z,26.63
2023-01-29T13:30:34.934Z,24.53
2023-01-29T13:33:10.266Z,22.10
2023-01-29T13:35:46.410Z,26.70
2023-01-29T13:38:35.536Z,26.30
2023-01-29T13:41:08.904Z,26.10
2023-01-29T13:43:48.845Z,25.50
2023-01-29T13:46:21.667Z,25.57
2023-01-29T13:48:55.236Z,25.10
2023-01-29T13:51:36.724Z,24.60
2023-01-29T13:54:24.767Z,26.97
2023-01-29T13:56:55.956Z,25.20
2023-01-29T13:59:55.491Z,24.50
2023-01-29T14:02:29.852Z,24.70
2023-01-29T14:05:30.228Z,25.07
2023-01-29T14:08:13.892Z,24.13
2023-01-29T14:10:44.627Z,25.80
2023-01-29T14:13:36.080Z,26.47
2023-01-29T14:16:04.588Z,24.07
2023-01-29T14:18:47.463Z,25.43
2023-01-29T14:21:28.570Z,25.97
2023-01-29T14:24:22.487Z,23.47
2023-01-29T14:26:56.938Z,25.43
2023-01-29T14:29:41.845Z,26.00
2023-01-29T14:32:25.193Z,24.47
2023-01-29T14:35:18.684Z,25.07
2023-01-29T14:38:00.893Z,26.40
2023-01-29T14:40:33.216Z,23.27
2023-01-29T14:43:20.994Z,27.57
2023-01-29T14:45:51.781Z,27.97
2023-01-29T14:48:52.040Z,24.07
2023-01-29T14:51:25.684Z,27.90
2023-01-29T14:54:33.734Z,24.10
2023-01-29T14:57:12.264Z,26.83
2023-01-29T15:00:01.462Z,22.63
2023-01-29T15:02:45.662Z,25.00
2023-01-29T15:05:29.322Z,26.33
2023-01-29T15:08:30.178Z,24.40
2023-01-29T15:11:35.777Z,23.17
2023-01-29T15:14:49.577Z,24.00
2023-01-29T15:17:33.460Z,25.17
2023-01-29T15:20:01.878Z,25.90
2023-01-29T15:22:33.065Z,29.13
2023-01-29T15:25:16.974Z,27.60
2023-01-29T15:27:46.822Z,24.23
2023-01-29T15:30:34.269Z,25.50
2023-01-29T15:33:05.221Z,25.50
2023-01-29T15:35:42.958Z,26.93
2023-01-29T15:38:22.792Z,25.67
2023-01-29T15:41:01.398Z,24.33
2023-01-29T15:43:38.110Z,26.87
2023-01-29T15:46:36.478Z,26.47
2023-01-29T15:49:25.235Z,22.90
2023-01-29T15:52:01.161Z,24.00
2023-01-29T15:54:35.388Z,22.40
2023-01-29T15:57:06.751Z,25.97
2023-01-29T15:59:45.178Z,24.00
2023-01-29T16:02:38.915Z,25.50
2023-01-29T16:05:33.277Z,24.53
2023-01-29T16:08:02.975Z,26.77
2023-01-29T16:10:35.056Z,23.30
2023-01-29T16:13:04.564Z,22.97
2023-01-29T16:15:38.158Z,24.83
2023-01-29T16:18:39.530Z,26.73
2023-01-29T16:21:39.542Z,22.83
2023-01-29T16:24:16.095Z,21.20
2023-01-29T16:26:51.098Z,24.83
2023-01-29T16:29:32.275Z,24.47
2023-01-29T16:32:03.515Z,23.07
2023-01-29T16:34:44.832Z,22.40
2023-01-29T16:37:33.716Z,20.80
2023-01-29T16:40:13.479Z,21.47
2023-01-29T16:42:42.162Z,22.23
2023-01-29T16:45:30.387Z,21.53
2023-01-29T16:48:35.107Z,23.97
2023-01-29T16:51:31.342Z,18.87
2023-01-29T16:54:22.389Z,23.17
2023-01-29T16:56:59.322Z,21.07
2023-01-29T16:59:39.029Z,21.20
2023-01-29T17:02:30.609Z,22.33
2023-01-29T17:05:09.095Z,21.60
2023-01-29T17:07:38.479Z,21.17
2023-01-29T17:10:08.465Z,20.90
2023-01-29T17:12:38.764Z,20.87
2023-01-29T17:15:47.040Z,19.70
2023-01-29T17:18:26.097Z,21.10
2023-01-29T17:20:54.844Z,20.33
2023-01-29T17:23:24.231Z,21.63
2023-01-29T17:25:52.512Z,21.43
2023-01-29T17:28:20.431Z,19.30
2023-01-29T17:31:00.323Z,20.23
2023-01-29T17:33:35.643Z,20.67
2023-01-29T17:36:03.909Z,20.70
2023-01-29T17:38:32.234Z,20.30
2023-01-29T17:41:33.784Z,22.40
2023-01-29T17:44:01.656Z,21.60
2023-01-29T17:46:29.742Z,20.80
2023-01-29T17:48:57.733Z,23.00
2023-01-29T17:51:25.785Z,21.87
2023-01-29T17:53:53.772Z,21.17
2023-01-29T17:56:27.788Z,21.63
2023-01-29T17:58:55.769Z,21.33
2023-01-29T18:01:23.906Z,19.67
2023-01-29T18:03:51.808Z,21.57
2023-01-29T18:06:30.015Z,20.90
2023-01-29T18:08:58.586Z,21.70
2023-01-29T18:11:27.128Z,22.53
2023-01-29T18:13:56.903Z,22.80
2023-01-29T18:16:26.593Z,22.10
2023-01-29T18:18:54.926Z,21.13
2023-01-29T18:21:22.863Z,22.83
2023-01-29T18:23:50.880Z,22.73
2023-01-29T18:26:18.731Z,20.93
2023-01-29T18:28:46.597Z,22.37
2023-01-29T18:31:14.814Z,20.53
2023-01-29T18:33:43.113Z,21.73
2023-01-29T18:36:11.133Z,24.17
2023-01-29T18:38:39.622Z,21.53
2023-01-29T18:41:11.102Z,22.57
2023-01-29T18:43:43.147Z,22.20
2023-01-29T18:46:14.329Z,23.03
2023-01-29T18:48:43.011Z,23.50
2023-01-29T18:51:11.282Z,23.90
2023-01-29T18:53:39.185Z,23.43
2023-01-29T18:56:08.492Z,25.00
2023-01-29T18:58:37.458Z,25.30
2023-01-29T19:01:12.167Z,22.07
2023-01-29T19:03:42.664Z,22.87
2023-01-29T19:06:12.884Z,23.57
2023-01-29T19:08:44.774Z,23.93
2023-01-29T19:11:13.032Z,23.87
2023-01-29T19:13:42.673Z,23.87
2023-01-29T19:16:13.641Z,25.07
2023-01-29T19:18:42.452Z,23.40
2023-01-29T19:21:17.148Z,23.20
2023-01-29T19:23:45.357Z,23.70
2023-01-29T19:26:13.951Z,21.57
2023-01-29T19:28:42.476Z,22.00
2023-01-29T19:31:10.278Z,19.50
2023-01-29T19:33:39.269Z,22.70
2023-01-29T19:36:08.077Z,22.87
2023-01-29T19:38:38.767Z,22.07
2023-01-29T19:41:07.089Z,21.67
2023-01-29T19:43:35.254Z,21.60
2023-01-29T19:46:09.264Z,23.57
2023-01-29T19:48:38.720Z,22.90
2023-01-29T19:51:15.130Z,22.60
2023-01-29T19:53:47.122Z,21.67
2023-01-29T19:56:22.321Z,22.93
2023-01-29T19:58:57.932Z,23.17
2023-01-29T20:01:36.395Z,21.60
2023-01-29T20:04:13.832Z,20.07
2023-01-29T20:06:48.084Z,19.70
2023-01-29T20:09:26.495Z,21.77
2023-01-29T20:11:57.677Z,19.50
2023-01-29T20:14:25.987Z,18.47
2023-01-29T20:16:54.033Z,19.10
2023-01-29T20:19:22.284Z,20.07
2023-01-29T20:21:55.075Z,21.07
2023-01-29T20:24:24.824Z,22.73
2023-01-29T20:26:53.448Z,21.47
2023-01-29T20:29:25.724Z,18.47
2023-01-29T20:31:54.308Z,23.57
2023-01-29T20:34:24.403Z,21.43
2023-01-29T20:36:52.954Z,20.27
2023-01-29T20:39:20.854Z,17.80
2023-01-29T20:41:52.705Z,18.80
2023-01-29T20:44:21.368Z,19.43
2023-01-29T20:46:53.656Z,22.00
2023-01-29T20:49:22.141Z,22.93
2023-01-29T20:51:49.932Z,20.53
2023-01-29T20:54:17.698Z,22.03
2023-01-29T20:56:46.458Z,20.90
2023-01-29T20:59:15.292Z,21.00
2023-01-29T21:01:43.910Z,20.10
2023-01-29T21:04:11.776Z,20.90
2023-01-29T21:06:40.608Z,21.20
2023-01-29T21:09:08.578Z,23.20
2023-01-29T21:11:36.414Z,21.93
2023-01-29T21:14:04.414Z,22.00
2023-01-29T21:16:32.464Z,23.83
2023-01-29T21:19:01.391Z,22.97
2023-01-29T21:21:30.852Z,21.97
2023-01-29T21:23:59.687Z,24.00
2023-01-29T21:26:27.507Z,21.97
2023-01-29T21:28:55.339Z,23.20
2023-01-29T21:31:23.226Z,20.23
2023-01-29T21:33:51.128Z,22.07
2023-01-29T21:36:19.100Z,23.97
2023-01-29T21:38:46.805Z,24.10
2023-01-29T21:41:16.588Z,23.90
2023-01-29T21:43:45.907Z,22.77
2023-01-29T21:46:14.024Z,21.27
2023-01-29T21:48:44.776Z,21.13
2023-01-29T21:51:13.148Z,21.97
2023-01-29T21:53:40.771Z,22.97
2023-01-29T21:56:08.686Z,21.53
2023-01-29T21:58:36.387Z,21.20
2023-01-29T22:01:36.225Z,21.00
2023-01-29T22:03:52.097Z,22.80
2023-01-29T22:06:19.981Z,21.73
2023-01-29T22:08:50.321Z,23.03
2023-01-29T22:11:18.936Z,23.67
2023-01-29T22:13:48.179Z,24.50
2023-01-29T22:16:20.114Z,22.27
2023-01-29T22:18:50.361Z,22.30
2023-01-29T22:21:20.585Z,21.53
2023-01-29T22:23:49.913Z,21.33
2023-01-29T22:26:20.170Z,23.30
2023-01-29T22:28:48.455Z,21.30
2023-01-29T22:31:16.360Z,23.40
2023-01-29T22:33:44.083Z,22.60
2023-01-29T22:36:11.852Z,21.50
2023-01-29T22:38:41.851Z,24.60
2023-01-29T22:41:15.991Z,22.87
2023-01-29T22:43:46.536Z,24.60
2023-01-29T22:46:14.981Z,24.60
2023-01-29T22:48:46.894Z,22.00
2023-01-29T22:51:22.885Z,22.57
2023-01-29T22:53:58.856Z,23.53
2023-01-29T22:56:32.138Z,23.40
2023-01-29T22:59:03.727Z,22.73
2023-01-29T23:01:38.057Z,22.93
2023-01-29T23:04:06.893Z,23.47
2023-01-29T23:06:35.872Z,25.30
2023-01-29T23:09:04.455Z,23.93
2023-01-29T23:11:32.149Z,24.17
2023-01-29T23:14:01.194Z,22.33
2023-01-29T23:16:29.531Z,23.23
2023-01-29T23:18:57.709Z,24.83
2023-01-29T23:21:27.365Z,24.07
2023-01-29T23:24:01.684Z,22.17
2023-01-29T23:26:48.790Z,25.07
2023-01-29T23:29:16.745Z,22.87
2023-01-29T23:31:44.530Z,24.97
2023-01-29T23:34:13.793Z,23.30
2023-01-29T23:36:42.506Z,22.50
2023-01-29T23:39:11.231Z,22.53
2023-01-29T23:41:39.373Z,22.40
2023-01-29T23:44:07.235Z,25.97
2023-01-29T23:46:35.230Z,23.97
2023-01-29T23:49:03.098Z,22.77
2023-01-29T23:51:30.942Z,25.43
2023-01-29T23:53:59.212Z,26.13
2023-01-29T23:56:27.164Z,24.10
2023-01-29T23:58:57.443Z,25.23
